Pietro Scalise

Olheiro - Spezia
3 Fev 2028
Quinta-feira
Processo

Personalidade

Adaptabilidade (3) Ambição (15) Controvérsia (3) Lealdade (17) Pressão (15) Profissionalismo (11) Espírito Esportivo (15) Temperamento (8)

Perfil

Estilo de Treinamento Democrático
Licença Nacional A
Determinação 10
Gestão de Pessoas 5
Motivação 4
Disciplina 6
Satisfação no Trabalho
100%
Fadiga
0%
Função Olheiro
Salário 47.0K p/s
Contrato 14.03.2029

Desempenho

Comportamento Bom
Eficácia do Treinamento
28%
Desenvolvimento do Jogador
45%
Prevenção de Lesões
45%
Implementação Tática
20%

Eventos Recentes

Participou de uma reunião de recrutamento 7d atrás
Participou de uma reunião de recrutamento 7d atrás
Participando de desenvolvimento profissional 14d atrás
Participou de uma reunião de recrutamento 14d atrás
Participou de uma reunião de recrutamento 14d atrás
Participando de desenvolvimento profissional 14d atrás
Participando de desenvolvimento profissional 14d atrás
Participando de desenvolvimento profissional 14d atrás

Monitorando agora

51
Jogador Clube Status Habilidade Confiança Observado Última observação Último voto
Nicolas Viola Ravenna Ativo 113 / 102 48% 1 18.01.2027 -
Juan Miranda Bologna Ativo 130 / 125 40% 2 29.12.2026 -
Mirko Antonucci Cittadella Ativo 127 / 110 40% 1 29.12.2026 -
Stiven Shpendi Empoli Ativo 114 / 132 40% 1 28.12.2026 -
Romano Schmid Frosinone Ativo 152 / 156 40% 4 26.12.2026 -
Andrea Colpani Monza Ativo 144 / 121 40% 1 22.12.2026 Mais informações
Jens Odgaard Bologna Ativo 131 / 141 40% 1 21.12.2026 Mais informações
Emanuele Schimmenti Potenza Ativo 111 / 104 40% 1 19.12.2026 -
Simon Ramabu Polokwane City Ativo 102 / 93 40% 1 17.12.2026 -
Thalente Mbatha Orlando Pirates Ativo 115 / 123 40% 1 17.12.2026 -
Luciano Gondou CSKA Moscow Ativo 117 / 109 40% 1 15.12.2026 -
Lorenzo Ignacchiti Empoli Ativo 115 / 131 40% 1 11.12.2026 -
Tijjani Noslin Lazio Ativo 121 / 134 40% 3 08.12.2026 -
Lucas Da Cunha Como Ativo 155 / 155 40% 3 07.12.2026 -
Siyanda Ndlovu Bloemfontein Celtic Ativo 106 / 127 40% 1 07.12.2026 -
Eren Aydın Zira Ativo 103 / 114 40% 1 05.12.2026 -
Tommaso Pobega Bologna Ativo 129 / 123 40% 2 03.12.2026 -
Giacomo Raspadori Atalanta Ativo 152 / 131 40% 1 28.11.2026 -
Mattéo Tramoni Pisa Ativo 134 / 127 40% 2 24.11.2026 -
Ramiro Ruiz Rodríguez Atlético Tucumán Ativo 117 / 118 40% 1 24.11.2026 -
Tshepang Moremi Orlando Pirates Ativo 100 / 120 40% 1 19.11.2026 -
Sayfallah Ltaief Cracovia Ativo 134 / 122 40% 1 19.11.2026 -
Mayckel Lahdo Malmo FF Ativo 108 / 133 40% 1 14.11.2026 -
Sead Hakšabanović Malmo FF Ativo 132 / 110 40% 1 14.11.2026 -
Pontus Almqvist Parma Ativo 121 / 137 40% 1 06.11.2026 -
Santiago González Tigre Ativo 134 / 120 40% 1 02.11.2026 -
Nadir Zortea Bologna Ativo 142 / 122 40% 2 01.11.2026 -
Alessio Zerbin Frosinone Ativo 117 / 137 40% 1 01.11.2026 -
Billy Gilmour Napoli Ativo 144 / 130 40% 1 30.10.2026 -
Joaquín Gho Argentinos Juniors Ativo 116 / 132 40% 2 28.10.2026 -
Lameck Banda Lecce Ativo 118 / 143 40% 1 28.10.2026 -
Þórir Jóhann Helgason IF Elfsborg Ativo 123 / 112 40% 1 21.10.2026 -
Bénie Traoré New York City Ativo 136 / 140 40% 1 21.10.2026 -
Kristian Thorstvedt Sassuolo Ativo 138 / 122 40% 1 20.10.2026 -
Carlos Vicente Birmingham Ativo 133 / 134 40% 2 13.10.2026 -
Isaiah Jones Luton Town Ativo 114 / 121 40% 1 13.10.2026 -
Elliot Anderson Manchester City Ativo 148 / 157 40% 1 04.10.2026 -
Yuber Quiñónes Deportivo Pereira Ativo 113 / 121 40% 1 04.10.2026 -
Lewis Ferguson Bologna Ativo 156 / 153 40% 2 01.10.2026 -
Brian Gutiérrez Guadalajara Ativo 134 / 151 40% 1 01.10.2026 -
Facundo Mura Inter Miami CF Ativo 106 / 118 40% 1 29.09.2026 -
Carlos Augusto Inter Ativo 138 / 143 40% 1 26.09.2026 -
Pedro Vite Pumas UNAM Ativo 114 / 114 40% 1 25.09.2026 -
Bryan González Guadalajara Ativo 147 / 129 40% 1 25.09.2026 -
Santiago Sala Güemes Ativo 110 / 120 40% 1 22.09.2026 -
Iván Angulo Orlando City Ativo 141 / 134 40% 1 19.09.2026 -
Georginio Rutter Brighton Ativo 144 / 160 40% 1 18.09.2026 -
Xavi Simons Tottenham Ativo 162 / 165 40% 1 16.09.2026 -
Tadeo Allende Inter Miami CF Ativo 128 / 107 40% 1 11.09.2026 -
Santiago Toloza O'Higgins Ativo 117 / 113 40% 1 11.09.2026 -
Ángel Correa River Plate Ativo 151 / 138 40% 1 01.08.2026 -